Time;durP1;ratioP1;P1;durP2;ratioP2;P2;SDS_P1;SDS_P2;PMS_P1;PMS_P2;Temp;Humidity;BMP_temperature;BMP_pressure;BME280_temperature;BME280_humidity;BME280_pressure;Samples;Min_cycle;Max_cycle;Signal;HPM_P1;HPM_P2
2021/05/13 00:01:36;;;;;;;1.80;1.70;;;;;;;8.54;63.91;98349.00;1662350;84;21110;-56
2021/05/13 00:04:04;;;;;;;2.05;1.40;;;;;;;8.55;63.87;98346.65;1706350;83;20945;-57
2021/05/13 00:06:30;;;;;;;1.70;1.57;;;;;;;8.55;63.84;98345.32;1697040;83;21142;-60
2021/05/13 00:08:57;;;;;;;1.50;1.40;;;;;;;8.57;63.83;98341.18;1670615;84;21585;-57
2021/05/13 00:11:30;;;;;;;1.65;1.55;;;;;;;8.58;63.79;98337.50;1692459;83;21092;-56
2021/05/13 00:13:55;;;;;;;2.45;1.47;;;;;;;8.57;63.77;98335.38;1710110;83;21116;-56
2021/05/13 00:16:28;;;;;;;3.65;1.20;;;;;;;8.59;63.74;98332.53;1662299;85;21080;-57
2021/05/13 00:18:50;;;;;;;3.05;1.50;;;;;;;8.59;63.69;98328.55;1711912;83;20941;-55
2021/05/13 00:21:17;;;;;;;2.65;1.40;;;;;;;8.59;63.59;98325.41;1662501;84;21036;-56
2021/05/13 00:23:43;;;;;;;1.60;1.45;;;;;;;8.58;63.65;98325.58;1697411;83;21096;-58
2021/05/13 00:26:10;;;;;;;6.87;1.60;;;;;;;8.57;63.55;98328.75;1706143;83;21143;-56
2021/05/13 00:28:36;;;;;;;1.65;1.40;;;;;;;8.55;63.54;98325.97;1681812;84;21013;-55
2021/05/13 00:31:03;;;;;;;1.82;1.50;;;;;;;8.52;63.62;98319.71;1691700;83;21530;-55
2021/05/13 00:33:30;;;;;;;2.95;1.57;;;;;;;8.51;63.69;98322.03;1659596;84;21001;-56
2021/05/13 00:35:56;;;;;;;1.70;1.30;;;;;;;8.48;63.72;98313.95;1697240;84;21034;-57
2021/05/13 00:38:22;;;;;;;2.00;1.80;;;;;;;8.46;63.76;98309.34;1719267;83;21056;-58
2021/05/13 00:40:49;;;;;;;2.42;1.50;;;;;;;8.44;63.86;98309.20;1719282;83;21120;-56
2021/05/13 00:43:15;;;;;;;2.70;1.50;;;;;;;8.42;64.04;98306.72;1687834;84;21662;-58
2021/05/13 00:45:43;;;;;;;3.83;1.80;;;;;;;8.43;64.15;98300.92;1687963;84;20954;-57
2021/05/13 00:48:16;;;;;;;1.20;1.10;;;;;;;8.45;64.13;98302.38;1682033;84;21091;-59
2021/05/13 00:50:41;;;;;;;1.72;1.62;;;;;;;8.48;64.06;98299.87;1707444;83;21083;-56
2021/05/13 00:53:08;;;;;;;2.33;1.62;;;;;;;8.49;64.03;98297.55;1668713;84;20960;-56
2021/05/13 00:55:37;;;;;;;1.45;1.35;;;;;;;8.48;63.97;98295.39;1679332;84;21092;-56
2021/05/13 00:58:04;;;;;;;1.45;1.35;;;;;;;8.45;64.02;98293.61;1714482;83;21056;-56
2021/05/13 01:01:04;;;;;;;1.95;1.57;;;;;;;8.41;64.08;98291.02;1700751;83;20938;-55
2021/05/13 01:02:59;;;;;;;2.10;1.60;;;;;;;8.39;64.11;98281.11;1662151;84;21136;-58
2021/05/13 01:05:26;;;;;;;3.62;1.70;;;;;;;8.38;64.12;98289.56;1668059;84;21644;-57
2021/05/13 01:07:52;;;;;;;1.45;1.35;;;;;;;8.35;64.19;98285.13;1680584;84;20939;-58
2021/05/13 01:10:19;;;;;;;1.90;1.60;;;;;;;8.32;64.24;98286.31;1695906;83;21057;-56
2021/05/13 01:12:47;;;;;;;2.47;1.40;;;;;;;8.30;64.29;98284.36;1678426;84;21560;-59
2021/05/13 01:15:32;;;;;;;2.47;2.10;;;;;;;8.28;64.32;98283.73;1685660;84;21080;-56
2021/05/13 01:18:04;;;;;;;2.60;2.22;;;;;;;8.26;64.37;98280.91;1680589;84;21115;-56
2021/05/13 01:20:28;;;;;;;2.50;1.65;;;;;;;8.24;64.54;98278.95;1684217;84;21013;-57
2021/05/13 01:22:55;;;;;;;1.57;1.47;;;;;;;8.20;64.63;98273.69;1669092;84;20945;-56
2021/05/13 01:25:23;;;;;;;1.92;1.45;;;;;;;8.11;65.04;98270.31;1687434;84;21554;-56
2021/05/13 01:27:49;;;;;;;1.80;1.42;;;;;;;7.97;65.39;98270.66;1694291;84;21089;-56
2021/05/13 01:30:16;;;;;;;3.72;2.02;;;;;;;7.84;65.84;98267.00;1675820;84;21625;-56
2021/05/13 01:32:43;;;;;;;1.70;1.60;;;;;;;7.70;66.39;98259.85;1690362;84;21061;-57
2021/05/13 01:35:10;;;;;;;2.42;1.85;;;;;;;7.59;66.78;98255.83;1689002;83;21507;-56
2021/05/13 01:37:36;;;;;;;4.17;1.47;;;;;;;7.55;67.17;98256.37;1674254;84;20977;-57
2021/05/13 01:40:05;;;;;;;1.67;1.57;;;;;;;7.51;67.39;98252.45;1701538;83;21808;-56
2021/05/13 01:42:32;;;;;;;1.87;1.77;;;;;;;7.43;67.74;98255.48;1698989;83;20890;-56
2021/05/13 01:44:58;;;;;;;2.65;1.80;;;;;;;7.36;68.10;98250.59;1662602;85;21543;-57
2021/05/13 01:47:26;;;;;;;2.47;1.82;;;;;;;7.30;68.36;98246.53;1691665;83;21013;-57
2021/05/13 01:49:53;;;;;;;3.22;1.90;;;;;;;7.24;68.71;98246.75;1685996;84;21574;-58
2021/05/13 01:52:19;;;;;;;3.08;1.80;;;;;;;7.19;68.99;98251.75;1700065;83;21640;-57
2021/05/13 01:54:45;;;;;;;2.00;1.57;;;;;;;7.15;69.12;98243.84;1657225;85;21684;-56
2021/05/13 01:57:12;;;;;;;2.15;1.95;;;;;;;7.11;69.34;98244.38;1699064;83;20933;-57
2021/05/13 01:59:38;;;;;;;2.10;1.90;;;;;;;7.09;69.46;98242.42;1680713;84;21073;-56
2021/05/13 02:02:06;;;;;;;3.05;1.77;;;;;;;7.07;69.69;98243.07;1693111;83;20899;-57
2021/05/13 02:04:33;;;;;;;1.70;1.60;;;;;;;7.04;69.91;98237.64;1710163;83;21078;-59
2021/05/13 02:06:59;;;;;;;2.00;1.70;;;;;;;7.08;69.90;98240.77;1684271;84;21100;-56
2021/05/13 02:09:26;;;;;;;4.15;1.95;;;;;;;7.06;69.96;98246.73;1697608;83;21074;-56
2021/05/13 02:11:52;;;;;;;4.10;2.33;;;;;;;7.01;70.21;98240.66;1680898;85;20977;-56
2021/05/13 02:14:19;;;;;;;1.75;1.50;;;;;;;7.00;70.10;98234.21;1672191;85;21517;-56
2021/05/13 02:16:45;;;;;;;1.90;1.50;;;;;;;6.99;70.11;98229.42;1678339;85;21095;-59
2021/05/13 02:19:12;;;;;;;2.45;1.77;;;;;;;7.00;70.07;98229.75;1707117;83;20998;-58
2021/05/13 02:21:38;;;;;;;1.95;1.45;;;;;;;7.03;70.00;98229.90;1671199;84;21023;-57
2021/05/13 02:24:06;;;;;;;1.77;1.67;;;;;;;7.03;70.10;98228.08;1696318;84;20996;-56
2021/05/13 02:26:32;;;;;;;2.37;1.42;;;;;;;7.07;70.00;98220.09;1697651;84;21080;-56
2021/05/13 02:28:59;;;;;;;1.62;1.35;;;;;;;7.09;70.00;98219.41;1689776;84;22247;-57
2021/05/13 02:31:25;;;;;;;1.65;1.37;;;;;;;7.12;69.85;98215.09;1671397;84;20965;-56
2021/05/13 02:33:52;;;;;;;2.35;1.60;;;;;;;7.13;69.77;98207.98;1678148;84;21157;-56
2021/05/13 02:36:19;;;;;;;1.90;1.50;;;;;;;7.14;69.64;98204.35;1667289;84;21104;-59
2021/05/13 02:38:45;;;;;;;1.67;1.50;;;;;;;7.16;69.50;98203.17;1683416;84;21030;-57
2021/05/13 02:41:12;;;;;;;1.90;1.40;;;;;;;7.21;69.29;98198.66;1694732;83;21059;-56
2021/05/13 02:43:38;;;;;;;1.52;1.40;;;;;;;7.25;69.16;98195.96;1707795;83;20961;-56
2021/05/13 02:46:05;;;;;;;1.50;1.40;;;;;;;7.30;69.01;98193.10;1705878;83;20965;-56
2021/05/13 02:48:31;;;;;;;2.87;1.47;;;;;;;7.34;68.81;98189.11;1699747;83;21209;-56
2021/05/13 02:50:58;;;;;;;1.57;1.47;;;;;;;7.36;68.64;98191.06;1705656;83;20982;-56
2021/05/13 02:53:24;;;;;;;1.50;1.40;;;;;;;7.39;68.50;98186.73;1711470;83;21715;-57
2021/05/13 02:55:50;;;;;;;2.02;1.62;;;;;;;7.43;68.39;98181.39;1681579;84;21171;-56
2021/05/13 02:58:17;;;;;;;1.80;1.40;;;;;;;7.47;68.22;98176.56;1670777;84;20971;-56
2021/05/13 03:00:54;;;;;;;2.35;1.50;;;;;;;7.51;68.16;98175.19;1718836;83;20915;-58
2021/05/13 03:03:17;;;;;;;4.25;1.47;;;;;;;7.58;68.06;98175.30;1683954;84;21540;-56
2021/05/13 03:05:44;;;;;;;3.37;1.87;;;;;;;7.62;67.84;98172.59;1667885;84;21174;-60
2021/05/13 03:08:12;;;;;;;1.45;1.30;;;;;;;7.63;67.75;98164.48;1669981;84;21067;-56
2021/05/13 03:13:13;;;;;;;2.75;1.50;;;;;;;7.75;67.38;98167.47;1691386;84;21052;-57
2021/05/13 03:15:39;;;;;;;2.85;2.17;;;;;;;7.76;67.25;98159.36;1692362;84;21000;-58
2021/05/13 03:18:06;;;;;;;4.58;1.87;;;;;;;7.78;67.09;98165.78;1695914;84;21681;-59
2021/05/13 03:20:37;;;;;;;1.82;1.40;;;;;;;7.81;66.97;98160.95;1696657;84;21578;-57
2021/05/13 03:23:02;;;;;;;2.30;2.10;;;;;;;7.85;66.83;98165.36;1685871;84;20969;-55
2021/05/13 03:25:31;;;;;;;1.90;1.77;;;;;;;7.87;66.65;98158.88;1695717;84;20988;-56
2021/05/13 03:28:09;;;;;;;2.37;1.72;;;;;;;7.88;66.57;98161.84;1695678;84;21016;-57
2021/05/13 03:30:44;;;;;;;2.08;1.80;;;;;;;7.86;66.78;98160.39;1670690;84;21129;-58
2021/05/13 03:33:12;;;;;;;2.60;1.55;;;;;;;7.96;66.72;98159.59;1668912;84;20958;-57
2021/05/13 03:35:38;;;;;;;3.58;1.95;;;;;;;8.13;66.28;98153.59;1688538;84;20998;-57
2021/05/13 03:38:05;;;;;;;2.52;1.70;;;;;;;8.26;65.89;98153.73;1711734;83;20960;-58
2021/05/13 03:40:32;;;;;;;2.20;1.90;;;;;;;8.50;65.45;98154.72;1663954;84;20931;-56
2021/05/13 03:42:59;;;;;;;2.12;1.77;;;;;;;8.81;64.63;98147.29;1676748;84;21106;-59
2021/05/13 03:45:26;;;;;;;5.05;1.70;;;;;;;9.01;63.96;98144.78;1691624;83;20969;-57
2021/05/13 03:47:52;;;;;;;5.55;1.85;;;;;;;9.07;63.59;98142.16;1662337;85;21048;-56
2021/05/13 03:50:19;;;;;;;2.00;1.80;;;;;;;9.05;63.65;98151.33;1713815;83;21176;-58
2021/05/13 03:52:46;;;;;;;2.33;1.75;;;;;;;9.07;63.79;98146.14;1698586;83;21012;-56
2021/05/13 03:55:13;;;;;;;3.12;1.82;;;;;;;9.36;63.22;98145.12;1686131;84;22312;-56
2021/05/13 03:57:41;;;;;;;3.37;1.87;;;;;;;9.76;61.93;98140.36;1702104;83;20966;-56
2021/05/13 04:00:11;;;;;;;1.85;1.72;;;;;;;10.08;60.91;98136.71;1716015;83;20969;-59
2021/05/13 04:02:37;;;;;;;2.70;1.75;;;;;;;10.43;59.90;98138.25;1666363;84;21099;-56
2021/05/13 04:05:05;;;;;;;2.00;1.70;;;;;;;10.92;58.13;98132.06;1665378;84;20911;-58
2021/05/13 04:07:36;;;;;;;3.20;2.02;;;;;;;11.18;57.22;98137.92;1684368;84;21085;-57
2021/05/13 04:10:09;;;;;;;3.72;2.00;;;;;;;11.43;56.89;98134.91;1691722;84;20921;-57
2021/05/13 04:12:37;;;;;;;2.12;1.82;;;;;;;11.60;55.29;98131.30;1680221;84;20950;-60
2021/05/13 04:15:06;;;;;;;4.28;1.90;;;;;;;11.34;56.10;98144.66;1692258;84;21012;-57
2021/05/13 04:17:33;;;;;;;3.15;1.95;;;;;;;11.15;56.77;98137.00;1668145;84;21009;-57
2021/05/13 04:19:59;;;;;;;1.75;1.65;;;;;;;11.10;57.33;98125.64;1682482;84;21104;-59
2021/05/13 04:22:26;;;;;;;3.30;2.22;;;;;;;11.22;57.42;98127.66;1682504;84;21016;-56
2021/05/13 04:24:52;;;;;;;2.22;2.02;;;;;;;11.46;57.08;98121.18;1692293;84;20965;-59
2021/05/13 04:27:18;;;;;;;1.80;1.70;;;;;;;11.88;56.30;98109.20;1671716;84;21090;-57
2021/05/13 04:29:45;;;;;;;2.52;2.33;;;;;;;12.46;54.99;98108.59;1691541;84;21573;-57
2021/05/13 04:32:11;;;;;;;2.17;1.90;;;;;;;12.97;53.14;98110.56;1688094;84;21143;-59
2021/05/13 04:34:37;;;;;;;2.00;1.90;;;;;;;13.20;52.33;98111.30;1691757;83;20984;-59
2021/05/13 04:37:04;;;;;;;3.55;2.17;;;;;;;13.47;52.04;98105.19;1707237;83;21625;-59
2021/05/13 04:39:30;;;;;;;3.83;2.00;;;;;;;13.45;51.06;98102.72;1720444;83;20972;-65
2021/05/13 04:41:57;;;;;;;4.65;2.25;;;;;;;13.29;51.74;98099.31;1706640;83;21076;-63
2021/05/13 04:44:23;;;;;;;2.87;1.77;;;;;;;13.32;51.74;98097.52;1692592;83;21092;-63
2021/05/13 04:46:57;;;;;;;5.55;2.30;;;;;;;13.39;51.67;98098.28;1718753;83;21016;-63
2021/05/13 04:49:19;;;;;;;3.17;2.15;;;;;;;13.69;50.93;98093.02;1719130;83;20940;-51
2021/05/13 04:51:46;;;;;;;2.85;2.50;;;;;;;13.97;50.23;98087.97;1710879;83;20985;-52
2021/05/13 04:54:14;;;;;;;8.03;2.67;;;;;;;14.14;50.08;98084.12;1718169;83;21739;-50
2021/05/13 04:56:40;;;;;;;2.40;2.08;;;;;;;14.21;49.63;98080.83;1711481;83;21767;-51
2021/05/13 04:59:06;;;;;;;3.50;2.25;;;;;;;14.34;49.65;98080.68;1711870;83;21072;-53
2021/05/13 05:01:33;;;;;;;5.50;2.77;;;;;;;14.66;47.88;98070.02;1718628;83;21028;-48
2021/05/13 05:04:00;;;;;;;2.30;2.10;;;;;;;14.83;46.78;98067.49;1715953;83;21020;-59
2021/05/13 05:06:26;;;;;;;4.30;2.58;;;;;;;14.83;47.11;98066.16;1719642;83;22328;-53
2021/05/13 05:08:53;;;;;;;3.25;2.37;;;;;;;15.21;46.94;98069.19;1713530;83;21042;-57
2021/05/13 05:11:20;;;;;;;2.00;1.90;;;;;;;15.75;45.75;98073.33;1720395;83;20965;-53
2021/05/13 05:13:47;;;;;;;2.10;2.00;;;;;;;16.28;44.63;98058.29;1710395;83;21040;-56
2021/05/13 05:16:13;;;;;;;2.67;2.33;;;;;;;16.85;42.39;98063.58;1693742;83;20980;-57
2021/05/13 05:18:40;;;;;;;4.28;2.27;;;;;;;16.64;43.05;98067.28;1709335;83;21000;-57
2021/05/13 05:21:07;;;;;;;2.12;1.92;;;;;;;16.80;42.45;98067.01;1720090;83;21046;-58
2021/05/13 05:23:33;;;;;;;3.50;1.87;;;;;;;16.70;42.76;98056.10;1701124;83;21036;-59
2021/05/13 05:25:59;;;;;;;3.10;2.37;;;;;;;16.61;42.31;98073.66;1710197;83;21651;-59
2021/05/13 05:28:27;;;;;;;3.45;1.77;;;;;;;16.55;42.56;98064.73;1707701;83;21108;-59
2021/05/13 05:30:53;;;;;;;3.30;2.02;;;;;;;16.55;42.61;98063.91;1717558;83;21087;-59
2021/05/13 05:33:22;;;;;;;2.20;1.62;;;;;;;16.35;43.70;98059.47;1698299;83;21090;-59
2021/05/13 05:35:49;;;;;;;2.50;2.05;;;;;;;16.24;43.75;98057.13;1673003;84;21025;-58
2021/05/13 05:38:16;;;;;;;2.52;1.60;;;;;;;16.70;43.17;98068.19;1699463;83;21538;-58
2021/05/13 05:40:42;;;;;;;3.50;1.57;;;;;;;17.06;42.37;98043.52;1709658;83;21020;-59
2021/05/13 05:43:09;;;;;;;2.77;1.47;;;;;;;17.53;41.54;98056.05;1658629;85;20974;-59
2021/05/13 05:45:36;;;;;;;2.52;1.75;;;;;;;17.62;40.43;98053.22;1690798;83;21053;-59
2021/05/13 05:48:03;;;;;;;1.60;1.50;;;;;;;17.27;41.27;98042.76;1666763;84;21006;-57
2021/05/13 05:50:34;;;;;;;2.58;1.40;;;;;;;17.24;42.32;98033.02;1720592;83;21050;-59
2021/05/13 05:53:00;;;;;;;5.03;1.55;;;;;;;17.45;41.72;98032.77;1687003;84;20956;-59
2021/05/13 05:55:27;;;;;;;2.60;1.60;;;;;;;17.47;41.45;98021.26;1670304;84;21628;-59
2021/05/13 05:57:54;;;;;;;2.58;1.45;;;;;;;17.32;41.96;98037.16;1684226;84;21088;-59
2021/05/13 06:00:20;;;;;;;5.40;2.08;;;;;;;17.42;42.11;98033.26;1676946;84;21000;-59
2021/05/13 06:02:47;;;;;;;1.90;1.70;;;;;;;17.38;42.15;98032.96;1697726;84;20953;-59
2021/05/13 06:05:14;;;;;;;2.77;2.10;;;;;;;17.34;42.74;98026.44;1680161;84;21529;-58
2021/05/13 06:07:41;;;;;;;2.55;2.00;;;;;;;17.62;43.04;98032.23;1669469;84;20920;-58
2021/05/13 06:10:12;;;;;;;3.00;1.80;;;;;;;18.00;41.67;98037.52;1691208;84;21508;-58
2021/05/13 06:12:38;;;;;;;2.37;1.75;;;;;;;18.02;41.85;98037.26;1669231;84;21606;-58
2021/05/13 06:15:07;;;;;;;2.00;1.80;;;;;;;17.96;42.15;98048.52;1668362;84;21109;-58
2021/05/13 06:17:34;;;;;;;1.70;1.60;;;;;;;17.88;42.12;98028.79;1683495;84;21017;-59
2021/05/13 06:20:02;;;;;;;2.62;1.70;;;;;;;17.72;42.76;98025.11;1676379;84;21018;-58
2021/05/13 06:22:29;;;;;;;3.05;1.92;;;;;;;17.87;42.57;98030.66;1669422;84;21056;-58
2021/05/13 06:24:56;;;;;;;3.42;1.42;;;;;;;17.72;43.19;98010.84;1669585;84;21569;-58
2021/05/13 06:27:22;;;;;;;4.97;1.92;;;;;;;18.07;43.65;98017.95;1677258;84;21541;-58
2021/05/13 06:29:49;;;;;;;2.05;1.57;;;;;;;18.70;42.03;98022.62;1666633;84;21000;-58
2021/05/13 06:32:16;;;;;;;2.00;1.50;;;;;;;18.99;41.69;98017.72;1686648;84;20921;-59
2021/05/13 06:34:43;;;;;;;2.33;1.57;;;;;;;19.31;40.65;98030.61;1717207;83;21146;-59
2021/05/13 06:37:10;;;;;;;2.10;1.90;;;;;;;19.23;40.48;98014.92;1696926;83;21471;-59
2021/05/13 06:39:37;;;;;;;1.75;1.65;;;;;;;19.00;41.37;98009.39;1657211;85;21672;-59
2021/05/13 06:42:05;;;;;;;2.10;1.67;;;;;;;18.99;41.34;98015.84;1687085;83;21040;-59
2021/05/13 06:44:31;;;;;;;2.12;1.92;;;;;;;18.99;41.34;98015.84;1702966;83;20958;-58
2021/05/13 06:46:59;;;;;;;2.60;2.02;;;;;;;18.99;40.78;98021.23;1707144;83;21028;-58
2021/05/13 06:49:25;;;;;;;2.37;1.67;;;;;;;18.99;40.78;98021.23;1713821;83;21688;-59
2021/05/13 06:51:51;;;;;;;2.75;1.87;;;;;;;18.88;41.59;97998.50;1711023;83;20921;-59
2021/05/13 06:54:18;;;;;;;2.83;1.98;;;;;;;18.92;41.48;98017.96;1719709;83;21028;-59
2021/05/13 06:56:44;;;;;;;3.87;1.82;;;;;;;18.46;42.13;98024.80;1700716;83;21048;-59
2021/05/13 06:59:11;;;;;;;2.42;1.95;;;;;;;18.26;43.20;98005.78;1708269;83;21678;-59
2021/05/13 07:01:37;;;;;;;3.22;2.08;;;;;;;18.28;43.08;98011.71;1697300;83;20981;-59
2021/05/13 07:04:04;;;;;;;2.00;1.60;;;;;;;18.44;43.29;97996.52;1720257;83;20906;-58
2021/05/13 07:06:33;;;;;;;3.17;1.80;;;;;;;18.50;43.50;97995.53;1717838;83;20992;-58
2021/05/13 07:09:00;;;;;;;4.20;1.45;;;;;;;18.78;43.37;97991.70;1692419;83;21021;-58
2021/05/13 07:11:26;;;;;;;2.40;1.70;;;;;;;19.40;42.42;97995.88;1693857;83;21053;-58
2021/05/13 07:13:53;;;;;;;2.05;1.17;;;;;;;19.63;41.38;97989.52;1710611;83;20937;-59
2021/05/13 07:16:19;;;;;;;2.10;1.55;;;;;;;19.99;40.89;97974.80;1693882;83;20984;-58
2021/05/13 07:18:45;;;;;;;5.03;1.72;;;;;;;20.36;40.13;97985.44;1696875;83;21705;-57
2021/05/13 07:21:13;;;;;;;1.62;1.52;;;;;;;19.91;39.97;97986.94;1685329;84;20990;-58
2021/05/13 07:23:43;;;;;;;4.22;1.60;;;;;;;20.04;40.49;97979.69;1684463;84;21055;-59
2021/05/13 07:26:09;;;;;;;1.98;1.42;;;;;;;20.03;39.84;97978.58;1663020;85;21031;-57
2021/05/13 07:28:35;;;;;;;2.20;1.72;;;;;;;20.07;40.46;97967.54;1672643;83;21007;-58
2021/05/13 07:31:01;;;;;;;2.35;1.50;;;;;;;20.58;39.31;97959.77;1699989;84;21001;-56
2021/05/13 07:33:28;;;;;;;1.92;1.75;;;;;;;20.58;39.31;97959.77;1700727;83;21553;-59
2021/05/13 07:35:54;;;;;;;2.50;1.40;;;;;;;19.80;41.04;97946.69;1686378;84;21086;-57
2021/05/13 07:38:22;;;;;;;2.30;1.30;;;;;;;19.80;41.04;97946.69;1693458;83;21083;-56
2021/05/13 07:40:48;;;;;;;3.87;1.65;;;;;;;19.60;40.81;97975.23;1692990;83;20937;-58
2021/05/13 07:43:15;;;;;;;1.95;1.65;;;;;;;19.00;42.10;97964.93;1692210;83;20988;-58
2021/05/13 07:45:44;;;;;;;2.25;1.60;;;;;;;18.71;43.57;97948.84;1691744;83;21048;-58
2021/05/13 07:48:11;;;;;;;2.02;1.70;;;;;;;18.92;43.44;97949.78;1693925;83;21115;-58
2021/05/13 07:50:37;;;;;;;3.08;1.35;;;;;;;19.06;42.87;97949.58;1702169;83;21004;-59
2021/05/13 07:53:05;;;;;;;4.05;1.62;;;;;;;19.28;43.16;97945.38;1696531;83;20973;-59
2021/05/13 07:55:32;;;;;;;3.35;1.67;;;;;;;19.43;42.75;97944.13;1734924;82;21645;-57
2021/05/13 07:57:58;;;;;;;3.35;1.70;;;;;;;19.53;41.75;97954.42;1672820;83;20985;-56
2021/05/13 08:00:24;;;;;;;1.50;1.10;;;;;;;19.24;41.62;97937.56;1740079;82;21039;-55
2021/05/13 08:02:51;;;;;;;3.27;1.40;;;;;;;18.78;42.28;97968.27;1674658;83;21053;-64
2021/05/13 08:05:17;;;;;;;1.90;1.22;;;;;;;18.72;41.84;97942.92;1694567;83;21614;-55
2021/05/13 08:07:44;;;;;;;1.50;0.85;;;;;;;18.59;41.40;97955.48;1724460;82;20946;-57
2021/05/13 08:10:11;;;;;;;1.92;1.70;;;;;;;18.55;42.13;97934.16;1677825;83;21042;-55
2021/05/13 08:12:37;;;;;;;2.15;1.27;;;;;;;18.41;41.78;97962.84;1700027;84;21097;-55
2021/05/13 08:15:08;;;;;;;2.02;1.20;;;;;;;18.11;43.09;97952.34;1713758;82;20937;-56
2021/05/13 08:17:34;;;;;;;2.77;1.05;;;;;;;18.06;43.29;97927.55;1707939;82;21495;-55
2021/05/13 08:20:01;;;;;;;1.77;1.30;;;;;;;18.21;43.13;97928.20;1716610;82;21038;-55
2021/05/13 08:22:28;;;;;;;4.30;1.32;;;;;;;18.45;43.19;97928.96;1743027;82;20996;-56
2021/05/13 08:24:54;;;;;;;6.25;1.47;;;;;;;18.65;42.31;97918.07;1742975;82;21098;-55
2021/05/13 08:27:20;;;;;;;3.27;1.27;;;;;;;18.65;41.82;97914.84;1731742;81;21662;-56
2021/05/13 08:29:47;;;;;;;2.02;1.20;;;;;;;18.78;40.78;97974.19;1736598;82;20956;-57
2021/05/13 08:32:13;;;;;;;5.00;1.30;;;;;;;18.58;41.45;97923.70;1670628;84;20981;-57
2021/05/13 08:34:40;;;;;;;1.47;1.12;;;;;;;18.49;41.26;97920.66;1735355;82;20974;-58
2021/05/13 08:37:07;;;;;;;1.50;1.15;;;;;;;18.47;41.31;97936.27;1699931;84;21051;-60
2021/05/13 08:39:34;;;;;;;2.25;1.17;;;;;;;18.64;41.09;97912.42;1742819;82;21035;-58
2021/05/13 08:42:03;;;;;;;2.42;1.57;;;;;;;18.38;42.14;97933.73;1723909;82;21142;-61
2021/05/13 08:44:29;;;;;;;4.30;1.42;;;;;;;17.92;43.07;97941.12;1736634;82;21203;-59
2021/05/13 08:46:57;;;;;;;1.90;1.30;;;;;;;17.55;43.42;97928.07;1742409;82;20949;-58
2021/05/13 08:49:26;;;;;;;1.40;1.30;;;;;;;17.19;43.92;97916.88;1718333;82;21066;-61
2021/05/13 08:51:53;;;;;;;2.67;1.30;;;;;;;17.07;45.21;97936.88;1743176;82;21153;-59
2021/05/13 08:54:23;;;;;;;2.17;1.45;;;;;;;17.22;44.96;97920.94;1742853;82;20929;-58
2021/05/13 08:56:52;;;;;;;2.85;1.90;;;;;;;17.26;45.04;97927.42;1731514;82;21045;-57
2021/05/13 08:59:18;;;;;;;1.60;1.22;;;;;;;17.33;45.06;97948.76;1729524;82;21522;-58
2021/05/13 09:01:56;;;;;;;3.80;1.42;;;;;;;17.34;43.96;97930.23;1733256;82;21691;-61
2021/05/13 09:04:23;;;;;;;1.32;1.25;;;;;;;17.36;44.89;97951.77;1729055;82;20998;-59
2021/05/13 09:06:49;;;;;;;6.03;1.72;;;;;;;17.23;44.50;97922.58;1742048;82;20961;-59
2021/05/13 09:09:20;;;;;;;4.87;1.20;;;;;;;16.89;45.18;97943.87;1743312;82;21013;-60
2021/05/13 09:11:56;;;;;;;1.80;1.50;;;;;;;16.59;46.27;97929.46;1740580;82;21036;-58
2021/05/13 09:14:27;;;;;;;;;;;;;;;16.57;46.67;97925.70;1744611;82;21106;-59
2021/05/13 09:16:55;;;;;;;3.15;1.62;;;;;;;16.61;47.32;97926.00;1738515;82;20184;-61
2021/05/13 09:19:34;;;;;;;2.90;1.60;;;;;;;16.71;46.54;97929.38;1730434;82;21681;-61
2021/05/13 09:22:08;;;;;;;3.77;1.57;;;;;;;16.89;46.51;97935.30;1729541;82;21020;-58
2021/05/13 09:25:05;;;;;;;5.12;1.67;;;;;;;16.96;46.42;97936.45;1732849;82;20937;-60
2021/05/13 09:27:35;;;;;;;2.70;1.42;;;;;;;16.87;46.77;97919.94;1723410;82;21093;-60
2021/05/13 09:30:25;;;;;;;2.22;1.50;;;;;;;16.72;47.14;97917.04;1741880;82;21012;-58
2021/05/13 09:32:58;;;;;;;1.77;1.55;;;;;;;16.71;47.38;97940.94;1731740;82;20917;-60
2021/05/13 09:35:32;;;;;;;1.62;1.52;;;;;;;16.74;47.11;97924.31;1680380;83;21041;-59
2021/05/13 09:38:02;;;;;;;2.27;1.72;;;;;;;16.71;47.69;97916.77;1729108;82;21606;-60
2021/05/13 09:40:52;;;;;;;7.90;1.70;;;;;;;16.77;47.79;97921.14;1742690;82;21542;-60
2021/05/13 09:43:25;;;;;;;2.62;1.65;;;;;;;16.56;47.87;97908.47;1703357;83;21013;-57
2021/05/13 09:45:58;;;;;;;2.75;1.47;;;;;;;16.42;48.29;97908.52;1742615;82;21012;-59
2021/05/13 09:48:45;;;;;;;2.60;1.45;;;;;;;16.48;48.78;97903.48;1739413;82;21005;-60
2021/05/13 09:51:30;;;;;;;1.92;1.42;;;;;;;16.48;48.68;97919.06;1737302;82;21057;-64
2021/05/13 09:54:17;;;;;;;1.55;1.30;;;;;;;16.44;48.85;97907.73;1739348;82;21158;-62
2021/05/13 09:56:50;;;;;;;3.27;1.50;;;;;;;16.62;48.87;97941.05;1743987;82;21617;-61
2021/05/13 09:59:31;;;;;;;1.50;1.40;;;;;;;16.79;48.31;97908.27;1750978;82;21007;-58
2021/05/13 10:01:59;;;;;;;1.60;1.50;;;;;;;16.91;49.01;97898.77;1750228;82;21075;-60
2021/05/13 10:04:26;;;;;;;4.53;1.60;;;;;;;16.96;48.05;97920.33;1751036;82;21553;-60
2021/05/13 10:06:55;;;;;;;2.95;1.50;;;;;;;16.92;47.78;97920.00;1750990;81;21055;-61
2021/05/13 10:09:21;;;;;;;5.95;1.77;;;;;;;16.86;47.88;97914.83;1750894;82;20974;-62
2021/05/13 10:11:56;;;;;;;3.90;2.00;;;;;;;16.83;47.41;97916.12;1746982;81;21025;-64
2021/05/13 10:14:24;;;;;;;2.65;1.47;;;;;;;16.79;47.96;97939.70;1750969;81;20988;-63
2021/05/13 10:16:54;;;;;;;3.58;1.20;;;;;;;16.90;48.24;97889.90;1719268;82;21103;-60
2021/05/13 10:19:27;;;;;;;1.32;1.15;;;;;;;17.01;47.82;97902.41;1721102;82;21698;-61
2021/05/13 10:21:55;;;;;;;2.08;1.32;;;;;;;17.19;47.27;97888.66;1725161;82;21044;-62
2021/05/13 10:24:21;;;;;;;3.70;1.45;;;;;;;17.28;46.99;97901.92;1737705;82;20968;-60
2021/05/13 10:26:51;;;;;;;2.87;1.27;;;;;;;17.36;45.94;97919.52;1743341;82;21012;-61
2021/05/13 10:29:26;;;;;;;1.80;1.30;;;;;;;17.33;45.91;97899.03;1721507;82;20972;-60
2021/05/13 10:32:21;;;;;;;1.43;1.20;;;;;;;17.36;46.11;97891.81;1723311;82;21072;-61
2021/05/13 10:34:57;;;;;;;4.58;1.20;;;;;;;17.35;46.41;97890.18;1731911;81;20960;-62
2021/05/13 10:37:40;;;;;;;4.17;1.42;;;;;;;17.19;46.46;97879.78;1750026;81;21537;-60
2021/05/13 10:40:28;;;;;;;1.82;1.22;;;;;;;17.00;46.92;97887.34;1721338;82;22067;-61
2021/05/13 10:43:05;;;;;;;1.70;1.60;;;;;;;16.82;47.41;97909.12;1721449;82;21099;-61
2021/05/13 10:45:36;;;;;;;5.25;1.52;;;;;;;16.64;48.22;97891.42;1720525;82;21098;-61
2021/05/13 10:48:23;;;;;;;2.85;1.50;;;;;;;16.53;48.47;97890.98;1742157;81;21673;-61
2021/05/13 10:51:02;;;;;;;2.83;1.65;;;;;;;16.44;48.54;97888.42;1740915;82;20980;-63
2021/05/13 10:53:42;;;;;;;1.70;1.30;;;;;;;16.38;49.11;97905.50;1721372;82;21616;-63
2021/05/13 10:56:37;;;;;;;3.70;1.72;;;;;;;16.22;49.13;97898.26;1743485;82;21581;-61
2021/05/13 10:59:09;;;;;;;3.50;1.55;;;;;;;16.08;50.28;97892.39;1735173;82;21095;-60
2021/05/13 11:01:46;;;;;;;1.85;1.40;;;;;;;16.09;50.45;97886.51;1742510;82;21626;-63
2021/05/13 11:04:29;;;;;;;1.40;1.30;;;;;;;16.18;50.52;97894.97;1721298;82;20909;-60
2021/05/13 11:07:20;;;;;;;2.40;1.52;;;;;;;16.29;50.45;97894.91;1721126;82;21043;-58
2021/05/13 11:09:52;;;;;;;1.80;1.70;;;;;;;16.29;49.81;97890.88;1721025;82;21028;-60
2021/05/13 11:12:26;;;;;;;4.50;2.17;;;;;;;16.27;50.16;97885.47;1732735;82;21789;-63
2021/05/13 11:17:50;;;;;;;1.77;1.40;;;;;;;16.30;50.74;97893.01;1703457;83;20980;-60
2021/05/13 11:20:23;;;;;;;1.82;1.52;;;;;;;16.30;50.72;97889.80;1661782;85;21001;-60
2021/05/13 11:23:05;;;;;;;4.03;1.80;;;;;;;16.27;50.43;97896.20;1699954;83;21076;-61
2021/05/13 11:25:51;;;;;;;3.70;2.12;;;;;;;16.24;50.81;97896.14;1663859;85;21032;-61
2021/05/13 11:28:37;;;;;;;2.72;1.47;;;;;;;16.30;50.73;97883.62;1685605;85;21052;-62
2021/05/13 11:31:13;;;;;;;4.12;1.75;;;;;;;16.39;50.84;97903.11;1684444;84;21009;-64
2021/05/13 11:33:47;;;;;;;4.30;2.00;;;;;;;16.53;50.22;97875.41;1660268;85;21681;-62
2021/05/13 11:36:16;;;;;;;6.05;1.77;;;;;;;16.51;50.22;97901.14;1668222;84;20986;-62
2021/05/13 11:38:44;;;;;;;6.95;2.20;;;;;;;16.46;50.86;97888.98;1698728;83;21681;-61
2021/05/13 11:41:11;;;;;;;6.83;1.80;;;;;;;16.56;51.39;97876.27;1662132;85;21116;-63
2021/05/13 11:43:39;;;;;;;3.40;2.10;;;;;;;16.69;50.38;97866.52;1701279;83;21017;-60
2021/05/13 11:46:10;;;;;;;3.08;2.52;;;;;;;16.80;50.29;97884.92;1676925;85;21044;-64
2021/05/13 11:48:41;;;;;;;3.72;2.10;;;;;;;16.84;50.00;97869.39;1699260;83;20972;-65
2021/05/13 11:51:13;;;;;;;5.00;2.20;;;;;;;16.81;50.74;97861.05;1695037;83;21141;-59